createdAt,value
2019-01-09T00:01:15.865Z,1.10
2019-01-09T00:03:45.150Z,1.57
2019-01-09T00:06:14.760Z,1.10
2019-01-09T00:08:44.039Z,1.63
2019-01-09T00:11:13.346Z,1.50
2019-01-09T00:13:42.645Z,1.10
2019-01-09T00:16:12.097Z,0.80
2019-01-09T00:18:41.354Z,1.63
2019-01-09T00:21:10.839Z,1.00
2019-01-09T00:23:40.101Z,1.03
2019-01-09T00:26:09.392Z,1.00
2019-01-09T00:28:38.660Z,0.90
2019-01-09T00:31:07.943Z,0.93
2019-01-09T00:33:37.318Z,1.23
2019-01-09T00:36:06.587Z,1.10
2019-01-09T00:38:35.865Z,0.90
2019-01-09T00:41:05.125Z,1.20
2019-01-09T00:43:34.418Z,1.37
2019-01-09T00:46:03.784Z,0.90
2019-01-09T00:48:33.034Z,0.93
2019-01-09T00:51:02.670Z,1.00
2019-01-09T00:53:31.928Z,1.10
2019-01-09T00:56:01.205Z,1.10
2019-01-09T00:58:30.489Z,1.00
2019-01-09T01:00:59.805Z,0.90
2019-01-09T01:03:53.809Z,0.80
2019-01-09T01:07:04.001Z,0.90
2019-01-09T01:10:16.403Z,0.90
2019-01-09T01:13:20.845Z,0.83
2019-01-09T01:16:25.830Z,0.80
2019-01-09T01:19:46.898Z,0.70
2019-01-09T01:22:47.006Z,0.90
2019-01-09T01:25:59.113Z,1.00
2019-01-09T01:29:00.661Z,1.00
2019-01-09T01:31:54.710Z,1.10
2019-01-09T01:35:13.633Z,1.00
2019-01-09T01:38:28.747Z,1.07
2019-01-09T01:41:18.043Z,0.90
2019-01-09T01:44:27.792Z,0.90
2019-01-09T01:47:34.037Z,0.80
2019-01-09T01:50:25.150Z,1.07
2019-01-09T01:53:14.129Z,0.70
2019-01-09T01:56:13.080Z,0.70
2019-01-09T01:59:17.458Z,0.70
2019-01-09T02:02:36.860Z,0.80
2019-01-09T02:05:30.588Z,0.90
2019-01-09T02:08:48.822Z,0.80
2019-01-09T02:11:59.041Z,0.70
2019-01-09T02:15:04.403Z,0.80
2019-01-09T02:17:57.982Z,0.73
2019-01-09T02:21:03.056Z,0.70
2019-01-09T02:23:59.593Z,0.60
2019-01-09T02:27:17.387Z,0.90
2019-01-09T02:30:32.415Z,0.50
2019-01-09T02:33:01.819Z,0.70
2019-01-09T02:35:32.559Z,0.60
2019-01-09T02:38:01.901Z,0.73
2019-01-09T02:40:31.180Z,0.80
2019-01-09T02:43:00.492Z,0.53
2019-01-09T02:45:30.680Z,0.70
2019-01-09T02:48:01.515Z,0.57
2019-01-09T02:50:30.811Z,0.47
2019-01-09T02:53:00.074Z,1.03
2019-01-09T02:55:29.350Z,0.90
2019-01-09T02:57:58.595Z,0.60
2019-01-09T03:00:29.306Z,0.60
2019-01-09T03:02:58.617Z,0.80
2019-01-09T03:05:27.882Z,0.60
2019-01-09T03:07:57.144Z,0.50
2019-01-09T03:10:26.411Z,0.40
2019-01-09T03:12:55.710Z,0.57
2019-01-09T03:15:25.322Z,0.60
2019-01-09T03:17:55.027Z,0.60
2019-01-09T03:20:24.474Z,0.40
2019-01-09T03:22:53.746Z,0.50
2019-01-09T03:25:23.350Z,0.50
2019-01-09T03:27:52.696Z,0.40
2019-01-09T03:30:21.967Z,0.40
2019-01-09T03:32:51.244Z,0.40
2019-01-09T03:35:20.607Z,0.60
2019-01-09T03:37:49.864Z,0.50
2019-01-09T03:40:20.152Z,0.70
2019-01-09T03:42:49.429Z,0.80
2019-01-09T03:45:18.694Z,0.40
2019-01-09T03:47:47.968Z,0.40
2019-01-09T03:50:17.230Z,0.80
2019-01-09T03:52:46.504Z,0.50
2019-01-09T03:55:15.756Z,0.50
2019-01-09T03:57:45.029Z,0.60
2019-01-09T04:00:14.294Z,0.80
2019-01-09T04:02:43.613Z,0.70
2019-01-09T04:05:12.962Z,0.67
2019-01-09T04:07:42.224Z,0.70
2019-01-09T04:10:11.529Z,0.70
2019-01-09T04:12:40.788Z,1.07
2019-01-09T04:15:10.361Z,0.67
2019-01-09T04:17:39.650Z,0.70
2019-01-09T04:20:10.728Z,0.97
2019-01-09T04:22:39.972Z,0.70
2019-01-09T04:25:09.261Z,0.73
2019-01-09T04:27:38.505Z,0.80
2019-01-09T04:30:08.390Z,0.60
2019-01-09T04:32:37.647Z,0.80
2019-01-09T04:35:07.056Z,1.20
2019-01-09T04:37:36.369Z,1.20
2019-01-09T04:40:06.114Z,1.00
2019-01-09T04:42:35.356Z,0.80
2019-01-09T04:45:04.723Z,0.70
2019-01-09T04:47:34.141Z,0.80
2019-01-09T04:50:03.509Z,0.60
2019-01-09T04:52:32.762Z,0.63
2019-01-09T04:55:03.545Z,0.73
2019-01-09T04:57:33.166Z,0.70
2019-01-09T05:00:02.447Z,0.70
2019-01-09T05:02:32.009Z,0.90
2019-01-09T05:05:01.313Z,0.70
2019-01-09T05:07:30.537Z,0.40
2019-01-09T05:09:59.940Z,0.30
2019-01-09T05:12:29.203Z,0.30
2019-01-09T05:14:58.456Z,0.20
2019-01-09T05:17:27.776Z,0.10
2019-01-09T05:19:57.170Z,0.20
2019-01-09T05:22:26.607Z,0.17
2019-01-09T05:24:55.975Z,0.20
2019-01-09T05:27:26.405Z,0.10
2019-01-09T05:29:57.808Z,0.17
2019-01-09T05:32:27.262Z,0.20
2019-01-09T05:34:56.760Z,0.20
2019-01-09T05:37:26.094Z,0.30
2019-01-09T05:39:55.365Z,0.30
2019-01-09T05:42:24.643Z,0.40
2019-01-09T05:44:53.972Z,0.50
2019-01-09T05:47:23.221Z,0.53
2019-01-09T05:49:52.609Z,0.60
2019-01-09T05:52:21.973Z,0.60
2019-01-09T05:54:52.741Z,0.47
2019-01-09T05:57:22.033Z,0.50
2019-01-09T05:59:51.304Z,0.50
2019-01-09T06:02:20.609Z,0.50
2019-01-09T06:04:49.992Z,0.50
2019-01-09T06:07:19.309Z,0.50
2019-01-09T06:09:48.906Z,0.50
2019-01-09T06:12:18.423Z,0.60
2019-01-09T06:14:48.929Z,0.50
2019-01-09T06:17:19.218Z,0.40
2019-01-09T06:19:48.552Z,0.60
2019-01-09T06:22:17.793Z,0.60
2019-01-09T06:24:47.069Z,0.50
2019-01-09T06:27:16.326Z,0.60
2019-01-09T06:29:45.607Z,0.63
2019-01-09T06:32:14.933Z,0.40
2019-01-09T06:34:44.201Z,0.60
2019-01-09T06:37:13.468Z,0.40
2019-01-09T06:39:45.353Z,0.40
2019-01-09T06:42:14.599Z,0.50
2019-01-09T06:44:43.942Z,0.50
2019-01-09T06:47:13.248Z,0.50
2019-01-09T06:49:42.506Z,0.50
2019-01-09T06:52:11.785Z,0.97
2019-01-09T06:54:41.239Z,0.63
2019-01-09T06:57:10.628Z,0.50
2019-01-09T06:59:39.977Z,0.60
2019-01-09T07:02:09.416Z,0.40
2019-01-09T07:04:38.644Z,0.60
2019-01-09T07:07:07.944Z,0.50
2019-01-09T07:09:38.326Z,0.70
2019-01-09T07:12:07.754Z,0.40
2019-01-09T07:14:38.522Z,0.73
2019-01-09T07:17:07.812Z,0.60
2019-01-09T07:19:37.109Z,0.83
2019-01-09T07:22:06.373Z,0.50
2019-01-09T07:24:35.753Z,1.27
2019-01-09T07:27:07.317Z,0.70
2019-01-09T07:29:36.598Z,0.40
2019-01-09T07:32:05.875Z,0.60
2019-01-09T07:34:35.482Z,0.43
2019-01-09T07:37:04.763Z,0.70
2019-01-09T07:39:34.041Z,0.60
2019-01-09T07:42:03.331Z,0.60
2019-01-09T07:44:32.599Z,0.70
2019-01-09T07:47:01.905Z,0.80
2019-01-09T07:49:31.193Z,0.60
2019-01-09T07:52:00.465Z,0.57
2019-01-09T07:54:29.732Z,0.60
2019-01-09T07:56:58.992Z,0.70
2019-01-09T07:59:28.289Z,0.73
2019-01-09T08:01:57.551Z,0.90
2019-01-09T08:04:26.875Z,0.60
2019-01-09T08:06:56.131Z,0.60
2019-01-09T08:09:25.406Z,0.63
2019-01-09T08:11:54.749Z,0.70
2019-01-09T08:14:24.015Z,0.70
2019-01-09T08:16:53.321Z,0.53
2019-01-09T08:19:22.582Z,0.60
2019-01-09T08:21:51.955Z,0.70
2019-01-09T08:24:22.344Z,0.90
2019-01-09T08:26:51.794Z,0.73
2019-01-09T08:29:21.039Z,0.80
2019-01-09T08:31:50.314Z,0.70
2019-01-09T08:34:19.604Z,0.70
2019-01-09T08:36:48.855Z,0.87
2019-01-09T08:39:18.141Z,0.70
2019-01-09T08:41:47.475Z,0.70
2019-01-09T08:44:16.759Z,1.00
2019-01-09T08:46:46.013Z,1.10
2019-01-09T08:49:15.376Z,0.93
2019-01-09T08:51:44.684Z,1.10
2019-01-09T08:54:13.967Z,0.80
2019-01-09T08:56:43.278Z,0.70
2019-01-09T08:59:12.556Z,0.70
2019-01-09T09:01:41.877Z,0.90
2019-01-09T09:04:11.146Z,0.70
2019-01-09T09:06:40.444Z,1.30
2019-01-09T09:09:09.948Z,0.90
2019-01-09T09:11:39.246Z,1.20
2019-01-09T09:14:21.693Z,0.80
2019-01-09T09:16:51.644Z,0.87
2019-01-09T09:19:21.194Z,1.00
2019-01-09T09:21:50.478Z,0.80
2019-01-09T09:24:19.753Z,0.80
2019-01-09T09:26:50.053Z,1.67
2019-01-09T09:29:20.540Z,0.80
2019-01-09T09:31:49.812Z,0.80
2019-01-09T09:34:19.528Z,1.20
2019-01-09T09:36:48.749Z,0.90
2019-01-09T09:39:18.061Z,1.23
2019-01-09T09:41:47.339Z,1.00
2019-01-09T09:44:16.593Z,1.00
2019-01-09T09:46:45.849Z,0.70
2019-01-09T09:49:16.986Z,0.80
2019-01-09T09:51:47.255Z,1.13
2019-01-09T09:54:16.513Z,0.90
2019-01-09T09:56:46.942Z,0.80
2019-01-09T09:59:16.201Z,0.77
2019-01-09T10:01:45.494Z,0.60
2019-01-09T10:04:14.773Z,0.90
2019-01-09T10:06:44.061Z,0.70
2019-01-09T10:09:13.351Z,0.87
2019-01-09T10:11:42.593Z,0.60
2019-01-09T10:14:12.025Z,0.70
2019-01-09T10:16:41.300Z,0.80
2019-01-09T10:19:10.589Z,0.80
2019-01-09T10:21:39.888Z,0.70
2019-01-09T10:24:09.208Z,1.20
2019-01-09T10:26:38.464Z,0.70
2019-01-09T10:29:07.997Z,0.70
2019-01-09T10:31:37.292Z,0.90
2019-01-09T10:34:06.613Z,0.70
2019-01-09T10:36:36.792Z,0.90
2019-01-09T10:39:09.324Z,1.20
2019-01-09T10:41:38.645Z,0.90
2019-01-09T10:44:07.921Z,0.90
2019-01-09T10:46:37.194Z,1.10
2019-01-09T10:49:06.592Z,0.80
2019-01-09T10:51:36.099Z,0.90
2019-01-09T10:54:05.598Z,0.63
2019-01-09T10:56:34.854Z,1.10
2019-01-09T10:59:04.140Z,1.23
2019-01-09T11:01:33.419Z,1.07
2019-01-09T11:04:02.723Z,0.80
2019-01-09T11:06:31.972Z,0.57
2019-01-09T11:09:02.768Z,0.70
2019-01-09T11:11:32.075Z,0.60
2019-01-09T11:14:01.342Z,0.80
2019-01-09T11:16:30.617Z,0.70
2019-01-09T11:18:59.914Z,0.60
2019-01-09T11:21:29.245Z,0.60
2019-01-09T11:23:58.515Z,0.90
2019-01-09T11:26:27.865Z,0.70
2019-01-09T11:28:57.110Z,0.53
2019-01-09T11:31:27.608Z,1.37
2019-01-09T11:33:56.844Z,0.60
2019-01-09T11:36:26.142Z,0.83
2019-01-09T11:38:56.050Z,0.60
2019-01-09T11:41:25.460Z,0.80
2019-01-09T11:43:54.728Z,0.70
2019-01-09T11:46:24.341Z,1.03
2019-01-09T11:48:53.601Z,3.93
2019-01-09T11:51:22.854Z,2.40
2019-01-09T11:53:53.259Z,1.13
2019-01-09T11:56:22.530Z,0.90
2019-01-09T11:58:51.813Z,0.90
2019-01-09T12:01:21.082Z,0.73
2019-01-09T12:03:50.391Z,0.70
2019-01-09T12:06:19.757Z,0.73
2019-01-09T12:08:49.454Z,0.60
2019-01-09T12:11:18.828Z,0.70
2019-01-09T12:13:48.090Z,0.80
2019-01-09T12:16:17.369Z,0.60
2019-01-09T12:18:46.631Z,0.90
2019-01-09T12:21:16.956Z,0.60
2019-01-09T12:23:46.377Z,0.67
2019-01-09T12:26:15.638Z,0.53
2019-01-09T12:28:53.237Z,0.70
2019-01-09T12:31:15.924Z,0.60
2019-01-09T12:33:45.233Z,0.50
2019-01-09T12:36:14.596Z,0.70
2019-01-09T12:38:43.930Z,0.53
2019-01-09T12:41:13.253Z,0.80
2019-01-09T12:43:42.562Z,0.60
2019-01-09T12:46:13.330Z,0.60
2019-01-09T12:48:42.615Z,0.60
2019-01-09T12:51:11.894Z,0.70
2019-01-09T12:53:41.161Z,0.70
2019-01-09T12:56:10.563Z,0.60
2019-01-09T12:58:39.827Z,1.13
2019-01-09T13:01:08.341Z,1.33
2019-01-09T13:03:37.614Z,0.80
2019-01-09T13:06:07.085Z,0.70
2019-01-09T13:08:36.400Z,0.80
2019-01-09T13:11:05.990Z,0.80
2019-01-09T13:13:35.287Z,0.50
2019-01-09T13:16:04.568Z,0.60
2019-01-09T13:18:33.829Z,0.63
2019-01-09T13:21:03.124Z,0.73
2019-01-09T13:23:33.336Z,0.77
2019-01-09T13:26:02.618Z,0.70
2019-01-09T13:28:31.915Z,0.50
2019-01-09T13:31:01.166Z,0.60
2019-01-09T13:33:30.443Z,0.70
2019-01-09T13:35:59.710Z,0.70
2019-01-09T13:38:29.002Z,0.80
2019-01-09T13:40:58.258Z,1.00
2019-01-09T13:43:27.517Z,0.60
2019-01-09T13:45:56.785Z,0.60
2019-01-09T13:48:26.065Z,1.10
2019-01-09T13:50:55.343Z,0.70
2019-01-09T13:53:24.670Z,0.70
2019-01-09T13:55:54.162Z,0.90
2019-01-09T13:58:23.417Z,0.70
2019-01-09T14:00:52.701Z,0.77
2019-01-09T14:03:23.136Z,0.97
2019-01-09T14:05:52.407Z,0.80
2019-01-09T14:08:21.799Z,0.80
2019-01-09T14:10:51.033Z,0.90
2019-01-09T14:13:21.443Z,1.13
2019-01-09T14:15:50.697Z,0.90
2019-01-09T14:18:19.967Z,0.90
2019-01-09T14:20:49.266Z,0.60
2019-01-09T14:23:18.581Z,0.90
2019-01-09T14:25:48.990Z,0.70
2019-01-09T14:28:18.288Z,1.23
2019-01-09T14:30:47.598Z,0.87
2019-01-09T14:33:16.858Z,1.00
2019-01-09T14:35:46.117Z,0.93
2019-01-09T14:38:15.757Z,0.80
2019-01-09T14:40:45.013Z,1.00
2019-01-09T14:43:14.290Z,0.93
2019-01-09T14:45:44.798Z,0.87
2019-01-09T14:48:14.100Z,0.90
2019-01-09T14:50:43.355Z,1.00
2019-01-09T14:53:12.618Z,1.00
2019-01-09T14:55:41.911Z,0.97
2019-01-09T14:58:12.653Z,1.10
2019-01-09T15:00:44.299Z,1.10
2019-01-09T15:03:13.602Z,0.83
2019-01-09T15:05:43.040Z,1.13
2019-01-09T15:08:12.241Z,1.00
2019-01-09T15:10:42.714Z,1.20
2019-01-09T15:13:12.015Z,1.10
2019-01-09T15:15:41.618Z,1.23
2019-01-09T15:18:10.873Z,1.20
2019-01-09T15:20:40.509Z,1.43
2019-01-09T15:23:09.782Z,1.43
2019-01-09T15:25:39.083Z,1.20
2019-01-09T15:28:08.351Z,1.33
2019-01-09T15:30:37.832Z,1.57
2019-01-09T15:33:07.087Z,1.50
2019-01-09T15:35:36.391Z,1.10
2019-01-09T15:38:05.734Z,1.63
2019-01-09T15:40:35.067Z,1.80
2019-01-09T15:43:04.553Z,1.43
2019-01-09T15:45:33.790Z,1.30
2019-01-09T15:48:03.228Z,1.40
2019-01-09T15:50:32.503Z,1.40
2019-01-09T15:53:01.791Z,1.40
2019-01-09T15:55:31.040Z,1.37
2019-01-09T15:58:00.402Z,1.40
2019-01-09T16:00:38.840Z,1.70
2019-01-09T16:03:08.520Z,1.33
2019-01-09T16:05:37.991Z,1.20
2019-01-09T16:08:08.590Z,1.30
2019-01-09T16:10:40.730Z,1.77
2019-01-09T16:13:10.021Z,1.63
2019-01-09T16:15:39.287Z,2.00
2019-01-09T16:18:08.565Z,1.30
2019-01-09T16:20:37.918Z,1.60
2019-01-09T16:23:07.229Z,1.77
2019-01-09T16:25:36.582Z,1.77
2019-01-09T16:28:07.650Z,1.70
2019-01-09T16:31:16.457Z,1.30
2019-01-09T16:33:45.749Z,1.83
2019-01-09T16:36:16.331Z,1.87
2019-01-09T16:38:45.736Z,1.70
2019-01-09T16:41:15.059Z,2.00
2019-01-09T16:43:44.291Z,2.00
2019-01-09T16:46:13.788Z,2.70
2019-01-09T16:48:44.899Z,2.23
2019-01-09T16:51:14.141Z,2.10
2019-01-09T16:53:43.409Z,2.10
2019-01-09T16:56:12.678Z,2.07
2019-01-09T16:58:41.961Z,1.80
2019-01-09T17:01:11.208Z,1.70
2019-01-09T17:03:40.551Z,2.10
2019-01-09T17:06:09.955Z,2.33
2019-01-09T17:08:39.226Z,1.83
2019-01-09T17:11:08.832Z,1.50
2019-01-09T17:13:39.600Z,2.00
2019-01-09T17:16:08.885Z,1.87
2019-01-09T17:18:38.181Z,1.70
2019-01-09T17:21:07.608Z,2.10
2019-01-09T17:23:36.972Z,2.40
2019-01-09T17:26:06.650Z,2.20
2019-01-09T17:28:36.048Z,2.10
2019-01-09T17:31:05.393Z,2.00
2019-01-09T17:33:34.697Z,2.20
2019-01-09T17:36:04.772Z,2.10
2019-01-09T17:38:34.337Z,1.90
2019-01-09T17:41:03.618Z,2.67
2019-01-09T17:43:32.923Z,2.47
2019-01-09T17:46:02.216Z,3.43
2019-01-09T17:48:31.590Z,2.87
2019-01-09T17:51:00.963Z,2.20
2019-01-09T17:53:30.413Z,2.30
2019-01-09T17:56:01.188Z,2.30
2019-01-09T17:58:31.068Z,2.53
2019-01-09T18:01:01.830Z,2.17
2019-01-09T18:03:31.196Z,2.50
2019-01-09T18:06:00.436Z,2.30
2019-01-09T18:08:29.709Z,2.67
2019-01-09T18:10:59.009Z,1.90
2019-01-09T18:13:29.776Z,3.50
2019-01-09T18:15:59.032Z,2.10
2019-01-09T18:18:28.339Z,3.23
2019-01-09T18:20:57.601Z,2.83
2019-01-09T18:23:26.892Z,2.50
2019-01-09T18:25:56.150Z,2.13
2019-01-09T18:28:25.459Z,2.17
2019-01-09T18:31:27.230Z,2.67
2019-01-09T18:34:27.701Z,3.20
2019-01-09T18:37:40.955Z,4.10
2019-01-09T18:40:59.446Z,2.30
2019-01-09T18:43:58.043Z,2.43
2019-01-09T18:46:59.322Z,2.83
2019-01-09T18:50:04.806Z,2.70
2019-01-09T18:53:00.821Z,2.70
2019-01-09T18:55:32.453Z,2.57
2019-01-09T18:58:02.128Z,2.80
2019-01-09T19:00:31.629Z,2.70
2019-01-09T19:03:01.221Z,3.03
2019-01-09T19:05:30.560Z,3.00
2019-01-09T19:07:59.913Z,3.17
2019-01-09T19:10:29.556Z,3.20
2019-01-09T19:13:00.942Z,2.83
2019-01-09T19:15:30.282Z,3.97
2019-01-09T19:17:59.696Z,3.60
2019-01-09T19:20:29.000Z,3.20
2019-01-09T19:22:58.299Z,3.30
2019-01-09T19:25:27.919Z,3.20
2019-01-09T19:27:57.186Z,3.63
2019-01-09T19:30:29.817Z,2.60
2019-01-09T19:32:59.371Z,2.37
2019-01-09T19:35:28.958Z,3.90
2019-01-09T19:37:58.699Z,3.20
2019-01-09T19:40:28.425Z,3.77
2019-01-09T19:42:57.783Z,3.00
2019-01-09T19:45:27.320Z,2.70
2019-01-09T19:47:56.627Z,2.53
2019-01-09T19:50:26.506Z,3.23
2019-01-09T19:52:56.296Z,2.47
2019-01-09T19:55:25.954Z,2.60
2019-01-09T19:57:55.442Z,2.33
2019-01-09T20:00:26.479Z,2.47
2019-01-09T20:02:57.227Z,2.60
2019-01-09T20:05:27.973Z,2.20
2019-01-09T20:07:57.755Z,2.50
2019-01-09T20:10:29.605Z,2.53
2019-01-09T20:13:00.782Z,2.80
2019-01-09T20:15:30.495Z,2.57
2019-01-09T20:18:00.233Z,2.73
2019-01-09T20:20:30.539Z,2.17
2019-01-09T20:23:00.298Z,2.33
2019-01-09T20:25:30.209Z,2.63
2019-01-09T20:27:59.499Z,2.23
2019-01-09T20:30:31.297Z,2.47
2019-01-09T20:33:00.952Z,2.63
2019-01-09T20:35:30.670Z,3.00
2019-01-09T20:37:59.929Z,2.40
2019-01-09T20:40:29.483Z,2.43
2019-01-09T20:43:00.346Z,2.37
2019-01-09T20:45:29.853Z,2.47
2019-01-09T20:48:02.808Z,2.03
2019-01-09T20:50:39.465Z,2.40
2019-01-09T20:53:09.182Z,2.40
2019-01-09T20:55:38.995Z,2.13
2019-01-09T20:58:08.820Z,2.77
2019-01-09T21:00:43.845Z,2.30
2019-01-09T21:03:14.068Z,2.40
2019-01-09T21:05:49.237Z,2.60
2019-01-09T21:08:18.595Z,2.27
2019-01-09T21:10:48.223Z,2.43
2019-01-09T21:13:18.192Z,2.60
2019-01-09T21:15:48.160Z,2.13
2019-01-09T21:18:17.909Z,2.30
2019-01-09T21:20:47.583Z,2.40
2019-01-09T21:23:16.901Z,2.10
2019-01-09T21:25:46.196Z,2.77
2019-01-09T21:28:16.270Z,2.40
2019-01-09T21:30:45.877Z,1.80
2019-01-09T21:33:16.510Z,1.67
2019-01-09T21:35:46.361Z,1.77
2019-01-09T21:38:15.973Z,1.53
2019-01-09T21:40:45.260Z,1.10
2019-01-09T21:43:15.828Z,2.87
2019-01-09T21:45:45.384Z,1.40
2019-01-09T21:48:14.660Z,1.50
2019-01-09T21:50:43.983Z,1.47
2019-01-09T21:53:13.231Z,1.37
2019-01-09T21:55:42.509Z,1.30
2019-01-09T21:58:11.882Z,1.00
2019-01-09T22:00:41.217Z,0.97
2019-01-09T22:03:10.758Z,0.87
2019-01-09T22:05:40.046Z,0.90
2019-01-09T22:08:09.660Z,0.90
2019-01-09T22:10:39.133Z,0.83
2019-01-09T22:13:09.070Z,0.80
2019-01-09T22:15:38.618Z,0.67
2019-01-09T22:18:08.090Z,0.87
2019-01-09T22:20:37.359Z,0.90
2019-01-09T22:23:06.621Z,0.80
2019-01-09T22:25:35.918Z,0.70
2019-01-09T22:28:05.203Z,0.80
2019-01-09T22:30:34.479Z,0.83
2019-01-09T22:33:04.013Z,0.90
2019-01-09T22:35:41.256Z,0.80
2019-01-09T22:38:04.910Z,0.90
2019-01-09T22:40:34.207Z,1.10
2019-01-09T22:43:03.477Z,1.00
2019-01-09T22:45:32.708Z,0.90
2019-01-09T22:48:02.083Z,1.00
2019-01-09T22:50:31.343Z,0.90
2019-01-09T22:53:00.634Z,1.00
2019-01-09T22:55:29.883Z,1.60
2019-01-09T22:57:59.166Z,0.90
2019-01-09T23:00:48.431Z,0.80
2019-01-09T23:03:18.023Z,0.87
2019-01-09T23:05:47.753Z,1.60
2019-01-09T23:08:17.268Z,0.93
2019-01-09T23:10:54.488Z,0.80
2019-01-09T23:13:17.627Z,0.80
2019-01-09T23:15:50.442Z,0.80
2019-01-09T23:18:20.645Z,1.20
2019-01-09T23:20:50.039Z,0.80
2019-01-09T23:23:21.196Z,0.80
2019-01-09T23:25:51.919Z,0.90
2019-01-09T23:28:21.182Z,1.00
2019-01-09T23:30:50.458Z,0.70
2019-01-09T23:33:20.017Z,0.73
2019-01-09T23:35:51.086Z,0.80
2019-01-09T23:38:20.646Z,0.90
2019-01-09T23:40:49.907Z,0.97
2019-01-09T23:43:19.394Z,0.70
2019-01-09T23:45:48.649Z,0.70
2019-01-09T23:48:17.954Z,0.83
2019-01-09T23:50:48.070Z,0.70
2019-01-09T23:53:17.374Z,0.97
2019-01-09T23:55:46.622Z,0.80
2019-01-09T23:58:15.913Z,0.80
